Time;durP1;ratioP1;P1;durP2;ratioP2;P2;SDS_P1;SDS_P2;PMS_P1;PMS_P2;Temp;Humidity;BMP_temperature;BMP_pressure;BME280_temperature;BME280_humidity;BME280_pressure;Samples;Min_cycle;Max_cycle;Signal;HPM_P1;HPM_P2
2023/12/29 00:01:56;;;;;;;1.83;1.10;;;11.50;99.90;;;;;;5035730;28;20411;-73
2023/12/29 00:04:22;;;;;;;4.33;1.17;;;11.50;99.90;;;;;;5033407;28;20421;-73
2023/12/29 00:06:48;;;;;;;8.13;1.43;;;11.60;99.90;;;;;;5032724;28;20182;-73
2023/12/29 00:09:14;;;;;;;1.73;1.00;;;11.50;99.90;;;;;;5032173;28;20176;-73
2023/12/29 00:11:40;;;;;;;5.00;0.93;;;11.60;99.90;;;;;;5038853;28;20418;-73
2023/12/29 00:14:05;;;;;;;4.23;1.37;;;11.50;99.90;;;;;;5033256;28;20461;-73
2023/12/29 00:16:31;;;;;;;3.37;0.80;;;11.60;99.90;;;;;;5042022;28;20183;-73
2023/12/29 00:18:57;;;;;;;7.73;1.47;;;11.60;99.90;;;;;;5033218;28;20581;-73
2023/12/29 00:21:22;;;;;;;7.87;1.13;;;11.60;99.90;;;;;;5033125;28;20179;-73
2023/12/29 00:23:48;;;;;;;2.60;1.40;;;11.60;99.90;;;;;;5033151;28;20192;-73
2023/12/29 00:26:16;;;;;;;2.70;0.97;;;11.60;99.90;;;;;;5032183;28;20171;-73
2023/12/29 00:28:42;;;;;;;1.93;1.37;;;11.70;99.90;;;;;;5031844;28;20254;-73
2023/12/29 00:31:08;;;;;;;3.73;1.03;;;11.60;99.90;;;;;;5036921;28;20501;-73
2023/12/29 00:33:33;;;;;;;4.30;1.30;;;11.60;99.90;;;;;;5032754;28;20549;-73
2023/12/29 00:35:59;;;;;;;4.70;2.53;;;11.60;99.90;;;;;;5033096;28;20168;-73
2023/12/29 00:38:27;;;;;;;6.20;1.30;;;11.60;99.90;;;;;;5031682;28;20184;-73
2023/12/29 00:40:53;;;;;;;2.30;1.20;;;11.70;99.90;;;;;;5032262;28;20696;-73
2023/12/29 00:43:18;;;;;;;2.97;1.00;;;11.70;99.90;;;;;;5032429;28;20477;-73
2023/12/29 00:45:44;;;;;;;3.33;0.97;;;11.60;99.90;;;;;;5038499;28;20172;-73
2023/12/29 00:48:09;;;;;;;4.50;1.20;;;11.60;99.90;;;;;;5032816;28;20180;-73
2023/12/29 00:50:35;;;;;;;2.53;1.10;;;11.60;99.90;;;;;;5032715;28;20201;-73
2023/12/29 00:53:00;;;;;;;1.63;1.00;;;11.60;99.90;;;;;;5032148;28;20211;-73
2023/12/29 00:55:26;;;;;;;3.57;1.00;;;11.60;99.90;;;;;;5031859;28;20175;-73
2023/12/29 00:57:51;;;;;;;2.20;1.27;;;11.60;99.90;;;;;;5037680;28;20171;-73
2023/12/29 01:00:17;;;;;;;2.83;1.20;;;11.70;99.90;;;;;;5035879;28;20183;-73
2023/12/29 01:02:42;;;;;;;1.93;1.00;;;11.60;99.90;;;;;;5034036;28;20555;-73
2023/12/29 01:05:08;;;;;;;3.47;1.13;;;11.70;99.90;;;;;;5051977;28;20187;-73
2023/12/29 01:07:33;;;;;;;3.13;1.37;;;11.60;99.90;;;;;;5032571;28;20263;-73
2023/12/29 01:09:59;;;;;;;2.57;1.30;;;11.60;99.90;;;;;;5032800;28;20188;-73
2023/12/29 01:12:25;;;;;;;3.60;1.40;;;11.60;99.90;;;;;;5032492;28;20661;-73
2023/12/29 01:14:50;;;;;;;6.10;1.30;;;11.60;99.90;;;;;;5040990;28;20203;-73
2023/12/29 01:17:16;;;;;;;1.67;0.93;;;11.60;99.90;;;;;;5037250;28;20180;-73
2023/12/29 01:19:41;;;;;;;4.97;1.60;;;11.50;99.90;;;;;;5038670;28;20590;-73
2023/12/29 01:22:07;;;;;;;7.50;1.67;;;11.50;99.90;;;;;;5031063;28;20199;-72
2023/12/29 01:24:32;;;;;;;4.57;1.73;;;11.40;99.90;;;;;;5032236;28;20171;-73
2023/12/29 01:26:58;;;;;;;3.67;1.80;;;11.50;99.90;;;;;;5036203;28;20187;-73
2023/12/29 01:29:23;;;;;;;5.80;1.43;;;11.40;99.90;;;;;;5038272;28;20270;-73
2023/12/29 01:31:49;;;;;;;9.07;1.73;;;11.40;99.90;;;;;;5032087;28;20171;-72
2023/12/29 01:34:15;;;;;;;3.53;1.23;;;11.50;99.90;;;;;;5032029;28;20675;-73
2023/12/29 01:36:40;;;;;;;5.63;1.90;;;11.40;99.90;;;;;;5037795;28;20180;-73
2023/12/29 01:39:06;;;;;;;2.60;1.80;;;11.50;99.90;;;;;;5036192;28;20175;-73
2023/12/29 01:41:31;;;;;;;8.63;1.73;;;11.40;99.90;;;;;;5033071;28;20168;-73
2023/12/29 01:43:59;;;;;;;7.80;1.30;;;11.40;99.90;;;;;;5031735;28;20705;-73
2023/12/29 01:46:27;;;;;;;11.47;1.80;;;11.40;99.90;;;;;;5031762;28;20175;-73
2023/12/29 01:48:53;;;;;;;3.40;1.57;;;11.50;99.90;;;;;;5031846;28;20464;-73
2023/12/29 01:51:23;;;;;;;4.23;1.23;;;11.40;99.90;;;;;;5031479;28;20489;-73
2023/12/29 01:53:49;;;;;;;5.63;1.90;;;11.50;99.90;;;;;;5031527;28;20466;-72
2023/12/29 01:56:15;;;;;;;2.80;1.00;;;11.50;99.90;;;;;;5031595;28;20446;-73
2023/12/29 01:58:40;;;;;;;1.23;0.80;;;11.50;99.90;;;;;;5031614;28;20477;-73
2023/12/29 02:01:07;;;;;;;4.50;1.60;;;11.50;99.90;;;;;;5031508;28;20518;-73
2023/12/29 02:03:34;;;;;;;2.33;1.37;;;11.50;99.90;;;;;;5031401;28;20265;-73
2023/12/29 02:05:59;;;;;;;5.50;1.23;;;11.50;99.90;;;;;;5031385;28;20440;-73
2023/12/29 02:08:25;;;;;;;4.87;1.40;;;11.50;99.90;;;;;;5031499;28;20418;-73
2023/12/29 02:10:51;;;;;;;1.77;1.30;;;11.50;99.90;;;;;;5030986;28;20175;-73
2023/12/29 02:13:16;;;;;;;4.70;1.40;;;11.50;99.90;;;;;;5031157;28;20199;-72
2023/12/29 02:15:42;;;;;;;6.73;1.80;;;11.50;99.90;;;;;;5034418;28;20409;-74
2023/12/29 02:18:14;;;;;;;2.37;1.30;;;11.50;99.90;;;;;;5031545;28;20178;-73
2023/12/29 02:20:40;;;;;;;3.97;1.70;;;11.50;99.90;;;;;;5031627;28;20167;-73
2023/12/29 02:23:06;;;;;;;2.57;1.20;;;11.50;99.90;;;;;;5039632;28;20433;-73
2023/12/29 02:25:32;;;;;;;6.00;1.60;;;11.50;99.90;;;;;;5030441;28;20421;-73
2023/12/29 02:28:22;;;;;;;3.80;1.30;;;11.50;99.90;;;;;;5036558;28;20242;-73
2023/12/29 02:31:00;;;;;;;3.90;1.03;;;11.50;99.90;;;;;;5031945;28;20473;-74
2023/12/29 02:33:27;;;;;;;3.40;1.97;;;11.50;99.90;;;;;;5031257;28;20458;-73
2023/12/29 02:35:59;;;;;;;5.13;1.60;;;11.50;99.90;;;;;;5030532;28;20511;-73
2023/12/29 02:38:27;;;;;;;4.93;1.73;;;11.50;99.90;;;;;;5030198;28;20947;-73
2023/12/29 02:40:55;;;;;;;3.83;1.33;;;11.50;99.90;;;;;;5032048;28;20421;-73
2023/12/29 02:43:20;;;;;;;4.90;1.73;;;11.50;99.90;;;;;;5037038;28;20547;-73
2023/12/29 02:45:46;;;;;;;3.93;1.60;;;11.60;99.90;;;;;;5038707;28;20847;-72
2023/12/29 02:48:11;;;;;;;1.40;1.30;;;11.50;99.90;;;;;;5031617;28;20179;-72
2023/12/29 02:50:37;;;;;;;4.60;1.07;;;11.50;99.90;;;;;;5039838;28;20170;-72
2023/12/29 02:53:04;;;;;;;3.47;1.10;;;11.50;99.90;;;;;;5036959;28;20573;-72
2023/12/29 02:55:29;;;;;;;1.50;1.10;;;11.40;99.90;;;;;;5033398;28;20586;-73
2023/12/29 02:57:55;;;;;;;12.20;1.67;;;11.50;99.90;;;;;;5031282;28;20418;-73
2023/12/29 03:00:20;;;;;;;9.97;4.10;;;11.50;99.90;;;;;;5039150;28;20179;-73
2023/12/29 03:02:46;;;;;;;2.10;0.90;;;11.50;99.90;;;;;;5031007;28;20191;-73
2023/12/29 03:05:11;;;;;;;2.63;1.30;;;11.40;99.90;;;;;;5038195;28;20665;-73
2023/12/29 03:07:37;;;;;;;2.17;1.00;;;11.40;99.90;;;;;;5032464;28;20578;-72
2023/12/29 03:10:03;;;;;;;7.17;1.70;;;11.50;99.90;;;;;;5030470;28;20180;-73
2023/12/29 03:12:30;;;;;;;4.70;1.37;;;11.50;99.90;;;;;;5030923;28;20279;-72
2023/12/29 03:14:56;;;;;;;4.13;1.10;;;11.50;99.90;;;;;;5031271;28;20452;-73
2023/12/29 03:17:21;;;;;;;2.23;1.20;;;11.50;99.90;;;;;;5044445;28;20409;-72
2023/12/29 03:19:47;;;;;;;2.80;1.03;;;11.50;99.90;;;;;;5046926;28;20167;-72
2023/12/29 03:22:13;;;;;;;2.23;1.20;;;11.50;99.90;;;;;;5037855;28;20701;-73
2023/12/29 03:24:41;;;;;;;8.70;1.57;;;11.50;99.90;;;;;;5034316;28;20414;-73
2023/12/29 03:27:06;;;;;;;3.60;1.37;;;11.50;99.90;;;;;;5041083;28;20176;-73
2023/12/29 03:29:32;;;;;;;1.77;0.90;;;11.50;99.90;;;;;;5034406;28;20517;-73
2023/12/29 03:31:57;;;;;;;2.00;1.30;;;11.50;99.90;;;;;;5048010;28;20665;-73
2023/12/29 03:34:23;;;;;;;2.43;1.30;;;11.50;99.90;;;;;;5038074;28;20257;-73
2023/12/29 03:36:49;;;;;;;2.87;1.63;;;11.50;99.90;;;;;;5034789;28;20179;-73
2023/12/29 03:39:14;;;;;;;2.90;1.33;;;11.50;99.90;;;;;;5033112;28;20168;-73
2023/12/29 03:41:40;;;;;;;4.27;1.20;;;11.50;99.90;;;;;;5033997;28;20163;-73
2023/12/29 03:44:06;;;;;;;2.70;1.10;;;11.50;99.90;;;;;;5038153;28;20227;-73
2023/12/29 03:46:32;;;;;;;4.47;1.97;;;11.50;99.90;;;;;;5034169;28;20171;-73
2023/12/29 03:48:58;;;;;;;2.63;1.40;;;11.40;99.90;;;;;;5034234;28;20421;-73
2023/12/29 03:51:24;;;;;;;9.73;1.33;;;11.50;99.90;;;;;;5041115;28;20497;-73
2023/12/29 03:53:49;;;;;;;1.50;1.10;;;11.40;99.90;;;;;;5034229;28;20581;-73
2023/12/29 03:56:16;;;;;;;3.33;1.30;;;11.40;99.90;;;;;;5032704;28;20179;-73
2023/12/29 03:58:42;;;;;;;1.93;1.20;;;11.40;99.90;;;;;;5033212;28;20528;-73
2023/12/29 04:01:12;;;;;;;3.67;1.10;;;11.40;99.90;;;;;;5033545;28;20468;-73
2023/12/29 04:03:38;;;;;;;3.47;1.33;;;11.40;99.90;;;;;;5032413;28;20448;-73
2023/12/29 04:06:04;;;;;;;4.83;1.33;;;11.40;99.90;;;;;;5033928;28;20949;-73
2023/12/29 04:08:30;;;;;;;3.73;1.30;;;11.40;99.90;;;;;;5040716;28;20977;-73
2023/12/29 04:10:56;;;;;;;4.30;3.33;;;11.30;99.90;;;;;;5042610;28;20911;-73
2023/12/29 04:13:22;;;;;;;6.47;1.23;;;11.40;99.90;;;;;;5031945;28;20458;-73
2023/12/29 04:15:47;;;;;;;2.17;1.00;;;11.30;99.90;;;;;;5042590;28;20696;-73
2023/12/29 04:18:13;;;;;;;2.40;1.10;;;11.30;99.90;;;;;;5038633;28;20724;-73
2023/12/29 04:20:38;;;;;;;4.10;1.00;;;11.30;99.90;;;;;;5033486;28;20176;-73
2023/12/29 04:23:06;;;;;;;2.73;1.30;;;11.30;99.90;;;;;;5032540;28;20196;-73
2023/12/29 04:25:32;;;;;;;4.40;1.73;;;11.30;99.90;;;;;;5047354;28;20163;-73
2023/12/29 04:27:58;;;;;;;6.40;1.60;;;11.30;99.90;;;;;;5033804;28;20410;-73
2023/12/29 04:30:23;;;;;;;5.87;1.10;;;11.20;99.90;;;;;;5036973;28;20175;-73
2023/12/29 04:32:49;;;;;;;1.77;0.90;;;11.30;99.90;;;;;;5033110;28;20760;-73
2023/12/29 04:35:15;;;;;;;6.00;2.47;;;11.30;99.90;;;;;;5040428;28;20681;-73
2023/12/29 04:37:42;;;;;;;3.80;1.23;;;11.30;99.90;;;;;;5046988;28;20175;-73
2023/12/29 04:40:08;;;;;;;3.73;1.20;;;11.30;99.90;;;;;;5043274;28;20556;-73
2023/12/29 04:42:33;;;;;;;1.80;0.87;;;11.40;99.90;;;;;;5045368;28;20476;-73
2023/12/29 04:44:59;;;;;;;8.53;1.50;;;11.40;99.90;;;;;;5051746;28;20167;-73
2023/12/29 04:47:24;;;;;;;11.60;1.50;;;11.40;99.90;;;;;;5053024;28;20539;-73
2023/12/29 04:49:50;;;;;;;3.33;1.00;;;11.40;99.90;;;;;;5053055;28;20218;-73
2023/12/29 04:52:15;;;;;;;6.90;1.60;;;11.40;99.90;;;;;;5052626;28;20206;-73
2023/12/29 04:54:41;;;;;;;6.20;1.10;;;11.40;99.90;;;;;;5049689;28;20235;-72
2023/12/29 04:57:06;;;;;;;4.30;1.00;;;11.40;99.90;;;;;;5052708;28;20177;-72
2023/12/29 04:59:32;;;;;;;3.67;1.90;;;11.40;99.90;;;;;;5044076;28;20547;-73
2023/12/29 05:01:57;;;;;;;5.13;1.30;;;11.40;99.90;;;;;;5050488;28;20189;-73
2023/12/29 05:04:23;;;;;;;7.23;1.43;;;11.30;99.90;;;;;;5051223;28;20175;-73
2023/12/29 05:06:48;;;;;;;12.13;2.10;;;11.40;99.90;;;;;;5051440;28;20171;-73
2023/12/29 05:09:14;;;;;;;3.63;1.83;;;11.30;99.90;;;;;;5051392;28;20508;-72
2023/12/29 05:11:40;;;;;;;4.00;1.07;;;11.30;99.90;;;;;;5052252;28;20197;-73
2023/12/29 05:14:05;;;;;;;2.97;1.40;;;11.30;99.90;;;;;;5052358;28;20697;-73
2023/12/29 05:16:31;;;;;;;3.70;1.37;;;11.20;99.90;;;;;;5044101;28;20270;-73
2023/12/29 05:18:56;;;;;;;3.80;1.10;;;11.10;99.90;;;;;;5044821;28;20580;-73
2023/12/29 05:21:24;;;;;;;2.93;1.53;;;11.10;99.90;;;;;;5051992;28;20167;-73
2023/12/29 05:23:49;;;;;;;1.67;0.90;;;11.00;99.90;;;;;;5052051;28;20194;-73
2023/12/29 05:26:15;;;;;;;1.63;0.87;;;11.00;99.90;;;;;;5052342;28;20413;-73
2023/12/29 05:28:40;;;;;;;1.90;1.40;;;10.90;99.90;;;;;;5050938;28;20171;-73
2023/12/29 05:31:06;;;;;;;2.40;1.33;;;11.00;99.90;;;;;;5052190;28;20653;-72
2023/12/29 05:33:33;;;;;;;6.03;1.17;;;10.90;99.90;;;;;;5049791;28;20199;-73
2023/12/29 05:35:59;;;;;;;1.30;0.90;;;10.80;99.90;;;;;;5051908;28;20174;-73
2023/12/29 05:38:25;;;;;;;4.20;1.30;;;10.70;99.90;;;;;;5052212;28;20414;-73
2023/12/29 05:40:51;;;;;;;4.67;1.20;;;10.80;99.90;;;;;;5044436;28;20491;-73
2023/12/29 05:43:17;;;;;;;3.00;1.20;;;10.80;99.90;;;;;;5051898;28;20955;-73
2023/12/29 05:45:43;;;;;;;5.47;1.20;;;10.80;99.90;;;;;;5050901;28;20174;-73
2023/12/29 05:48:09;;;;;;;5.43;1.43;;;10.70;99.90;;;;;;5052397;28;20405;-73
2023/12/29 05:50:35;;;;;;;2.80;1.00;;;10.70;99.90;;;;;;5034300;28;20225;-73
2023/12/29 05:53:00;;;;;;;13.07;1.40;;;10.70;99.90;;;;;;5056239;28;20488;-72
2023/12/29 05:55:26;;;;;;;2.40;1.23;;;10.70;99.90;;;;;;5051942;28;20198;-73
2023/12/29 05:57:52;;;;;;;6.97;1.40;;;10.60;99.90;;;;;;5060132;28;20169;-72
2023/12/29 06:00:18;;;;;;;4.30;0.90;;;10.60;99.90;;;;;;5052109;28;20720;-72
2023/12/29 06:02:44;;;;;;;3.40;1.17;;;10.60;99.90;;;;;;5051403;28;20429;-73
2023/12/29 06:05:12;;;;;;;4.80;1.33;;;10.60;99.90;;;;;;5048879;28;20181;-73
2023/12/29 06:07:39;;;;;;;2.30;1.43;;;10.60;99.90;;;;;;5043223;28;20222;-73
2023/12/29 06:10:05;;;;;;;2.53;1.00;;;10.60;99.90;;;;;;5051641;28;20462;-73
2023/12/29 06:12:30;;;;;;;3.27;1.23;;;10.50;99.90;;;;;;5051355;28;20852;-73
2023/12/29 06:14:56;;;;;;;2.83;1.07;;;10.50;99.90;;;;;;5051676;28;20449;-73
2023/12/29 06:17:21;;;;;;;3.33;0.90;;;10.60;99.90;;;;;;5045027;28;20546;-73
2023/12/29 06:19:47;;;;;;;5.73;1.10;;;10.50;99.90;;;;;;5049592;28;20183;-73
2023/12/29 06:22:14;;;;;;;4.27;0.97;;;10.50;99.90;;;;;;5051737;28;20814;-73
2023/12/29 06:24:41;;;;;;;4.57;1.30;;;10.50;99.90;;;;;;5041895;28;20667;-73
2023/12/29 06:27:09;;;;;;;2.00;0.90;;;10.50;99.90;;;;;;5051831;28;20417;-72
2023/12/29 06:29:34;;;;;;;3.53;1.20;;;10.50;99.90;;;;;;5051696;28;20492;-72
2023/12/29 06:32:00;;;;;;;1.20;0.80;;;10.50;99.90;;;;;;5051743;28;20564;-72
2023/12/29 06:34:26;;;;;;;3.27;1.17;;;10.50;99.90;;;;;;5046455;28;20190;-72
2023/12/29 06:36:52;;;;;;;3.87;1.10;;;10.60;99.90;;;;;;5051325;28;20281;-73
2023/12/29 06:39:17;;;;;;;7.33;1.50;;;10.60;99.90;;;;;;5041276;28;20180;-73
2023/12/29 06:41:43;;;;;;;7.70;1.20;;;10.60;99.90;;;;;;5039347;28;20229;-73
2023/12/29 06:44:08;;;;;;;4.03;1.13;;;10.60;99.90;;;;;;5051098;28;20203;-72
2023/12/29 06:46:36;;;;;;;5.97;1.47;;;10.70;99.90;;;;;;5051234;28;20217;-73
2023/12/29 06:49:02;;;;;;;2.10;1.00;;;10.70;99.90;;;;;;5049447;28;20625;-73
2023/12/29 06:51:28;;;;;;;4.77;2.10;;;10.70;99.90;;;;;;5049510;28;20432;-73
2023/12/29 06:53:54;;;;;;;1.77;0.90;;;10.70;99.90;;;;;;5054415;28;20472;-72
2023/12/29 06:56:20;;;;;;;4.40;1.03;;;10.70;99.90;;;;;;5055018;28;20183;-73
2023/12/29 06:58:46;;;;;;;1.30;0.77;;;10.80;99.90;;;;;;5054168;28;20424;-72
2023/12/29 07:01:11;;;;;;;2.43;1.00;;;10.80;99.90;;;;;;5054699;28;20254;-73
2023/12/29 07:03:37;;;;;;;3.33;0.90;;;10.80;99.90;;;;;;5054517;28;20926;-73
2023/12/29 07:06:03;;;;;;;1.90;0.80;;;10.90;99.90;;;;;;5050601;28;20219;-73
2023/12/29 07:08:29;;;;;;;1.63;1.03;;;10.90;99.90;;;;;;5054593;28;20175;-73
2023/12/29 07:10:54;;;;;;;2.40;0.97;;;10.90;99.90;;;;;;5054693;28;20773;-73
2023/12/29 07:13:20;;;;;;;4.27;1.20;;;10.90;99.90;;;;;;5054407;28;20231;-73
2023/12/29 07:15:47;;;;;;;2.00;1.00;;;10.90;99.90;;;;;;5053767;28;20661;-73
2023/12/29 07:18:13;;;;;;;3.43;1.00;;;10.90;99.90;;;;;;5068362;28;20165;-73
2023/12/29 07:20:39;;;;;;;1.63;1.10;;;10.90;99.90;;;;;;5057209;28;20413;-73
2023/12/29 07:23:05;;;;;;;2.50;0.83;;;10.80;99.90;;;;;;5051585;28;20199;-73
2023/12/29 07:25:30;;;;;;;1.03;0.93;;;10.90;99.90;;;;;;5054109;28;20182;-73
2023/12/29 07:27:56;;;;;;;2.83;0.90;;;10.80;99.90;;;;;;5051633;28;20425;-73
2023/12/29 07:30:22;;;;;;;1.10;1.00;;;10.80;99.90;;;;;;5061267;28;20169;-70
2023/12/29 07:32:47;;;;;;;4.50;1.10;;;10.80;99.90;;;;;;5050029;28;20230;-70
2023/12/29 07:35:17;;;;;;;2.27;1.00;;;10.80;99.90;;;;;;5040965;28;20210;-70
2023/12/29 07:37:46;;;;;;;3.10;0.90;;;10.80;99.90;;;;;;5050603;28;20174;-71
2023/12/29 07:40:12;;;;;;;0.93;0.70;;;10.90;99.90;;;;;;5046020;28;20447;-70
2023/12/29 07:42:39;;;;;;;2.83;1.20;;;10.90;99.90;;;;;;5048414;28;20494;-70
2023/12/29 07:45:05;;;;;;;4.10;1.13;;;11.00;99.90;;;;;;5047621;28;20457;-70
2023/12/29 07:47:31;;;;;;;2.50;1.07;;;11.10;99.90;;;;;;5051825;28;20528;-71
2023/12/29 07:49:57;;;;;;;2.40;1.10;;;11.10;99.90;;;;;;5048020;28;20525;-69
2023/12/29 07:52:23;;;;;;;1.87;0.70;;;11.10;99.90;;;;;;5043217;28;20465;-71
2023/12/29 07:54:49;;;;;;;1.57;0.70;;;11.10;99.90;;;;;;5036239;28;20191;-70
2023/12/29 07:57:14;;;;;;;1.90;0.80;;;11.10;99.90;;;;;;5039828;28;20167;-69
2023/12/29 07:59:40;;;;;;;5.00;1.10;;;11.10;99.90;;;;;;5046931;28;20436;-70
2023/12/29 08:02:06;;;;;;;1.73;1.13;;;11.00;99.90;;;;;;5046910;28;20174;-69
2023/12/29 08:04:32;;;;;;;4.73;2.90;;;11.10;99.90;;;;;;5047399;28;20582;-68
2023/12/29 08:06:57;;;;;;;8.23;1.27;;;11.10;99.90;;;;;;5052234;28;20182;-69
2023/12/29 08:09:23;;;;;;;2.17;1.20;;;11.10;99.90;;;;;;5053258;28;20225;-71
2023/12/29 08:11:49;;;;;;;1.60;1.00;;;11.10;99.90;;;;;;5068225;28;20661;-70
2023/12/29 08:14:14;;;;;;;2.97;0.93;;;11.20;99.90;;;;;;5073608;28;20550;-70
2023/12/29 08:16:40;;;;;;;1.33;0.80;;;11.10;99.90;;;;;;5073598;28;20520;-69
2023/12/29 08:19:07;;;;;;;4.20;1.10;;;10.90;99.90;;;;;;5066611;28;20187;-68
2023/12/29 08:21:32;;;;;;;3.77;1.07;;;10.80;99.90;;;;;;5052855;28;20426;-68
2023/12/29 08:23:58;;;;;;;3.63;1.20;;;10.60;99.90;;;;;;5062121;28;20456;-69
2023/12/29 08:26:23;;;;;;;1.63;1.13;;;10.50;99.90;;;;;;5033619;28;20203;-67
2023/12/29 08:28:49;;;;;;;4.20;1.10;;;10.50;99.90;;;;;;5047083;28;20175;-70
2023/12/29 08:31:16;;;;;;;10.50;1.40;;;10.40;99.90;;;;;;5044160;28;20206;-70
2023/12/29 08:33:41;;;;;;;3.63;1.17;;;10.40;99.90;;;;;;5038326;28;20685;-70
2023/12/29 08:36:07;;;;;;;2.50;1.10;;;10.40;99.90;;;;;;5045003;28;20488;-71
2023/12/29 08:38:33;;;;;;;1.60;1.13;;;10.40;99.90;;;;;;5049957;28;20163;-70
2023/12/29 08:40:59;;;;;;;10.33;1.23;;;10.40;99.90;;;;;;5047767;28;20204;-70
2023/12/29 08:43:25;;;;;;;3.43;1.10;;;10.20;99.90;;;;;;5063712;28;20194;-67
2023/12/29 08:45:50;;;;;;;2.40;1.27;;;10.20;99.90;;;;;;5055405;28;20433;-71
2023/12/29 08:48:16;;;;;;;2.30;0.93;;;10.30;99.90;;;;;;5040818;28;20186;-69
2023/12/29 08:50:45;;;;;;;5.13;0.90;;;10.30;99.90;;;;;;5039112;28;20671;-70
2023/12/29 08:53:10;;;;;;;1.90;0.83;;;10.30;99.90;;;;;;5039016;28;20822;-70
2023/12/29 08:55:36;;;;;;;3.40;1.30;;;10.30;99.90;;;;;;5039161;28;20462;-70
2023/12/29 08:58:01;;;;;;;1.97;1.10;;;10.30;99.90;;;;;;5035882;28;20170;-71
2023/12/29 09:00:30;;;;;;;3.20;1.50;;;10.40;99.90;;;;;;5067305;28;20253;-69
2023/12/29 09:02:56;;;;;;;3.07;0.87;;;10.40;99.90;;;;;;5055917;28;20210;-69
2023/12/29 09:05:21;;;;;;;3.90;1.00;;;10.40;99.90;;;;;;5072579;28;20412;-69
2023/12/29 09:07:47;;;;;;;3.63;1.03;;;10.40;99.90;;;;;;5062889;28;20982;-69
2023/12/29 09:10:12;;;;;;;2.87;0.80;;;10.40;99.90;;;;;;5064133;28;20252;-69
2023/12/29 09:12:38;;;;;;;3.60;1.47;;;10.40;99.90;;;;;;5063700;28;20209;-69
2023/12/29 09:15:05;;;;;;;13.10;1.40;;;10.40;99.90;;;;;;5051641;28;20320;-69
2023/12/29 09:17:31;;;;;;;3.90;2.17;;;10.30;99.90;;;;;;5043843;28;20479;-71
2023/12/29 09:19:56;;;;;;;2.80;1.07;;;10.30;99.90;;;;;;5069924;28;20416;-69
2023/12/29 09:22:22;;;;;;;2.60;1.10;;;10.30;99.90;;;;;;5071717;28;20194;-71
2023/12/29 09:24:47;;;;;;;1.33;1.00;;;10.20;99.90;;;;;;5064802;28;20171;-70
2023/12/29 09:27:13;;;;;;;1.80;0.80;;;10.20;99.90;;;;;;5062969;28;20541;-70
2023/12/29 09:29:39;;;;;;;1.73;1.20;;;10.20;99.90;;;;;;5059015;28;20269;-71
2023/12/29 09:32:05;;;;;;;2.93;0.93;;;10.20;99.90;;;;;;5071891;28;20451;-70
2023/12/29 09:34:31;;;;;;;3.30;1.00;;;10.20;99.90;;;;;;5072105;28;20967;-70
2023/12/29 09:36:56;;;;;;;1.40;0.83;;;10.20;99.90;;;;;;5072187;28;20192;-71
2023/12/29 09:39:22;;;;;;;3.03;1.07;;;10.30;99.90;;;;;;5054176;28;20171;-71
2023/12/29 09:41:51;;;;;;;1.00;0.67;;;10.30;99.90;;;;;;5060060;28;20174;-70
2023/12/29 09:44:20;;;;;;;3.40;1.13;;;10.30;99.90;;;;;;5071941;28;20178;-71
2023/12/29 09:46:50;;;;;;;5.13;1.20;;;10.40;99.90;;;;;;5061998;28;20433;-70
2023/12/29 09:49:18;;;;;;;2.27;0.80;;;10.50;99.90;;;;;;5072030;28;20416;-70
2023/12/29 09:51:45;;;;;;;1.93;0.90;;;10.50;99.90;;;;;;5071813;28;20396;-71
2023/12/29 09:54:10;;;;;;;1.10;0.70;;;10.60;99.90;;;;;;5059854;28;20464;-71
2023/12/29 09:56:37;;;;;;;1.00;0.80;;;10.60;99.90;;;;;;5059918;28;20482;-70
2023/12/29 09:59:04;;;;;;;0.80;0.60;;;10.70;99.90;;;;;;5071712;28;20171;-70
2023/12/29 10:01:30;;;;;;;1.47;0.80;;;10.80;99.90;;;;;;5071716;28;20515;-70
2023/12/29 10:03:59;;;;;;;2.20;1.00;;;10.90;99.90;;;;;;5071724;28;20428;-70
2023/12/29 10:06:25;;;;;;;1.20;0.80;;;11.10;99.90;;;;;;5055502;28;20843;-72
2023/12/29 10:08:52;;;;;;;1.10;0.77;;;11.10;99.90;;;;;;5058191;28;20810;-71
2023/12/29 10:11:20;;;;;;;1.83;1.13;;;11.20;99.90;;;;;;5050315;28;20468;-70
2023/12/29 10:13:49;;;;;;;4.30;1.30;;;11.20;99.90;;;;;;5062713;28;20457;-70
2023/12/29 10:16:38;;;;;;;1.90;0.87;;;11.20;99.90;;;;;;5057316;28;20450;-70
2023/12/29 10:19:21;;;;;;;3.00;0.90;;;11.20;99.90;;;;;;5066846;28;20417;-70
2023/12/29 10:22:03;;;;;;;0.93;0.83;;;11.30;99.90;;;;;;5057157;28;20938;-70
2023/12/29 10:24:29;;;;;;;3.43;0.70;;;11.40;99.90;;;;;;5050669;28;21478;-69
2023/12/29 10:26:55;;;;;;;2.00;0.90;;;11.50;99.90;;;;;;5063933;28;20426;-70
2023/12/29 10:29:21;;;;;;;2.53;0.90;;;11.70;99.90;;;;;;5075530;28;20461;-70
2023/12/29 10:31:47;;;;;;;1.30;0.73;;;11.70;99.90;;;;;;5075590;28;20938;-69
2023/12/29 10:34:30;;;;;;;0.90;0.70;;;11.80;99.90;;;;;;5075560;28;20543;-71
2023/12/29 10:36:56;;;;;;;1.70;1.00;;;11.70;99.90;;;;;;5075740;28;20393;-71
2023/12/29 10:39:22;;;;;;;0.90;0.67;;;11.80;99.90;;;;;;5075604;28;20458;-70
2023/12/29 10:41:48;;;;;;;9.40;1.00;;;11.80;99.90;;;;;;5075325;28;20454;-70
2023/12/29 10:44:13;;;;;;;1.10;0.80;;;11.80;99.90;;;;;;5075355;28;21120;-69
2023/12/29 10:46:39;;;;;;;1.40;0.80;;;11.70;99.90;;;;;;5075317;28;20170;-69
2023/12/29 10:49:11;;;;;;;0.90;0.73;;;11.60;99.90;;;;;;5075289;28;20174;-69
2023/12/29 10:51:37;;;;;;;1.20;0.80;;;11.60;99.90;;;;;;5075332;28;20846;-69
2023/12/29 10:54:04;;;;;;;1.10;0.70;;;11.70;99.90;;;;;;5074912;28;20471;-70
2023/12/29 10:56:30;;;;;;;4.27;2.60;;;11.70;99.90;;;;;;5075136;28;20408;-70
2023/12/29 10:59:04;;;;;;;2.73;0.80;;;11.80;99.90;;;;;;5075090;28;20415;-71
2023/12/29 11:01:34;;;;;;;1.23;0.70;;;11.90;99.90;;;;;;5074890;28;20438;-72
2023/12/29 11:04:01;;;;;;;1.43;0.93;;;11.90;99.90;;;;;;5074824;28;20962;-71
2023/12/29 11:06:30;;;;;;;1.90;0.70;;;11.90;99.90;;;;;;5075013;28;20461;-70
2023/12/29 11:08:56;;;;;;;2.40;0.73;;;11.90;99.90;;;;;;5075071;28;20914;-69
2023/12/29 11:11:23;;;;;;;3.23;1.00;;;12.00;99.90;;;;;;5074601;28;20408;-71
2023/12/29 11:13:50;;;;;;;2.70;0.87;;;12.00;99.90;;;;;;5074532;28;20464;-70
2023/12/29 11:16:17;;;;;;;1.90;1.03;;;12.00;99.90;;;;;;5074823;28;20392;-69
2023/12/29 11:18:44;;;;;;;1.30;0.80;;;12.20;99.90;;;;;;5074792;28;20411;-69
2023/12/29 11:21:12;;;;;;;1.43;0.70;;;12.30;99.90;;;;;;5074060;28;20401;-70
2023/12/29 11:23:38;;;;;;;1.93;0.90;;;12.30;99.90;;;;;;5074050;28;20430;-71
2023/12/29 11:26:04;;;;;;;1.73;0.70;;;12.40;99.90;;;;;;5073981;28;20405;-71
2023/12/29 11:28:36;;;;;;;0.80;0.60;;;12.50;99.90;;;;;;5074285;28;20458;-71
2023/12/29 11:31:02;;;;;;;6.00;1.00;;;12.70;99.90;;;;;;5073198;28;20170;-71
2023/12/29 11:33:35;;;;;;;1.33;0.87;;;12.70;99.90;;;;;;5074012;28;20416;-71
2023/12/29 11:36:16;;;;;;;1.33;0.70;;;12.80;99.90;;;;;;5074458;28;20420;-70
2023/12/29 11:38:54;;;;;;;5.60;0.90;;;12.90;99.90;;;;;;5073500;28;20828;-69
2023/12/29 11:41:36;;;;;;;1.47;0.90;;;12.80;99.90;;;;;;5074271;28;20466;-69
2023/12/29 11:44:02;;;;;;;2.07;0.80;;;12.80;99.90;;;;;;5074232;28;20432;-69
2023/12/29 11:46:46;;;;;;;3.33;0.83;;;12.90;99.90;;;;;;5074233;28;20411;-71
2023/12/29 11:49:12;;;;;;;1.00;0.63;;;13.00;99.90;;;;;;5074127;28;20177;-69
2023/12/29 11:51:45;;;;;;;1.20;0.83;;;13.10;99.90;;;;;;5073916;28;20400;-69
2023/12/29 11:54:20;;;;;;;1.07;0.80;;;13.10;99.90;;;;;;5073787;28;20273;-69
2023/12/29 11:56:46;;;;;;;1.50;0.80;;;12.90;99.90;;;;;;5074022;28;20397;-69
2023/12/29 11:59:13;;;;;;;2.93;0.97;;;12.80;99.90;;;;;;5073903;28;20466;-70
2023/12/29 12:01:39;;;;;;;2.60;0.77;;;12.80;99.90;;;;;;5074220;28;20404;-71
2023/12/29 12:04:41;;;;;;;1.20;0.87;;;12.70;99.90;;;;;;5073837;28;20505;-69
2023/12/29 12:07:37;;;;;;;4.00;0.87;;;12.80;99.90;;;;;;5073882;28;20490;-72
2023/12/29 12:10:32;;;;;;;3.47;0.93;;;12.80;99.90;;;;;;5073544;28;20446;-72
2023/12/29 12:12:59;;;;;;;0.90;0.70;;;12.80;99.90;;;;;;5073477;28;20770;-70
2023/12/29 12:15:28;;;;;;;7.57;1.00;;;12.80;99.90;;;;;;5073547;28;20486;-70
2023/12/29 12:17:54;;;;;;;0.80;0.60;;;12.80;99.90;;;;;;5074062;28;20425;-69
2023/12/29 12:20:20;;;;;;;2.10;0.80;;;12.70;99.90;;;;;;5073500;28;20479;-71
2023/12/29 12:22:58;;;;;;;1.40;0.97;;;12.60;99.90;;;;;;5073294;28;20995;-71
2023/12/29 12:25:30;;;;;;;1.87;0.90;;;12.50;99.90;;;;;;5073401;28;20768;-69
2023/12/29 12:27:56;;;;;;;0.80;0.60;;;12.60;99.90;;;;;;5073499;28;20712;-69
2023/12/29 12:30:22;;;;;;;1.47;0.67;;;12.40;99.90;;;;;;5073324;28;20400;-70
2023/12/29 12:32:58;;;;;;;3.23;0.70;;;12.40;99.90;;;;;;5072930;28;20515;-70
2023/12/29 12:35:26;;;;;;;1.77;1.27;;;12.40;99.90;;;;;;5073194;28;20194;-69
2023/12/29 12:38:07;;;;;;;8.03;1.03;;;12.30;99.90;;;;;;5073212;28;20825;-71
2023/12/29 12:40:33;;;;;;;1.23;0.70;;;12.40;99.90;;;;;;5073165;28;20401;-72
2023/12/29 12:42:58;;;;;;;1.07;0.60;;;12.40;99.90;;;;;;5072584;28;20958;-71
2023/12/29 12:45:27;;;;;;;1.27;0.57;;;12.40;99.90;;;;;;5072940;28;20177;-70